createdAt,value
2018-08-13T00:01:19.547Z,2.80
2018-08-13T00:03:49.768Z,3.00
2018-08-13T00:06:19.990Z,2.90
2018-08-13T00:08:50.079Z,3.10
2018-08-13T00:11:20.347Z,2.77
2018-08-13T00:13:50.378Z,3.47
2018-08-13T00:16:19.311Z,3.50
2018-08-13T00:18:49.408Z,3.57
2018-08-13T00:21:18.015Z,3.40
2018-08-13T00:23:47.379Z,3.03
2018-08-13T00:26:16.742Z,3.33
2018-08-13T00:28:45.441Z,3.33
2018-08-13T00:31:14.191Z,3.10
2018-08-13T00:33:42.923Z,3.50
2018-08-13T00:36:12.633Z,2.90
2018-08-13T00:38:41.940Z,3.50
2018-08-13T00:41:11.866Z,3.13
2018-08-13T00:43:41.406Z,2.90
2018-08-13T00:46:10.975Z,3.07
2018-08-13T00:48:41.250Z,3.00
2018-08-13T00:51:09.894Z,3.40
2018-08-13T00:53:39.890Z,3.40
2018-08-13T00:56:09.410Z,3.77
2018-08-13T00:58:38.438Z,3.43
2018-08-13T01:01:08.547Z,3.43
2018-08-13T01:03:37.969Z,3.73
2018-08-13T01:06:07.011Z,3.30
2018-08-13T01:08:35.710Z,3.33
2018-08-13T01:11:05.122Z,3.07
2018-08-13T01:13:36.390Z,3.00
2018-08-13T01:16:05.719Z,3.10
2018-08-13T01:18:34.356Z,3.63
2018-08-13T01:21:03.168Z,3.40
2018-08-13T01:23:33.308Z,3.17
2018-08-13T01:26:01.956Z,3.03
2018-08-13T01:28:30.879Z,3.60
2018-08-13T01:31:01.520Z,3.40
2018-08-13T01:33:30.309Z,3.47
2018-08-13T01:36:01.877Z,3.30
2018-08-13T01:38:31.984Z,3.40
2018-08-13T01:41:00.868Z,2.97
2018-08-13T01:43:29.505Z,3.33
2018-08-13T01:45:58.944Z,3.00
2018-08-13T01:48:27.618Z,3.33
2018-08-13T01:50:57.186Z,3.40
2018-08-13T01:53:26.403Z,3.00
2018-08-13T01:55:55.219Z,3.40
2018-08-13T01:58:24.814Z,3.73
2018-08-13T02:00:53.443Z,3.30
2018-08-13T02:03:22.276Z,3.40
2018-08-13T02:05:51.710Z,3.23
2018-08-13T02:08:20.588Z,3.23
2018-08-13T02:10:49.982Z,3.07
2018-08-13T02:13:19.322Z,3.43
2018-08-13T02:15:49.360Z,3.90
2018-08-13T02:18:19.807Z,3.23
2018-08-13T02:20:49.838Z,3.67
2018-08-13T02:23:19.200Z,3.43
2018-08-13T02:25:48.997Z,3.40
2018-08-13T02:28:19.590Z,3.43
2018-08-13T02:30:48.936Z,3.17
2018-08-13T02:33:18.842Z,3.20
2018-08-13T02:35:48.219Z,3.17
2018-08-13T02:38:17.345Z,3.17
2018-08-13T02:40:46.145Z,2.90
2018-08-13T02:43:15.579Z,2.97
2018-08-13T02:45:45.145Z,3.63
2018-08-13T02:48:13.902Z,3.27
2018-08-13T02:50:42.649Z,3.37
2018-08-13T02:53:12.047Z,3.53
2018-08-13T02:55:42.078Z,3.53
2018-08-13T02:58:11.085Z,3.27
2018-08-13T03:00:40.633Z,3.60
2018-08-13T03:03:09.362Z,3.90
2018-08-13T03:05:38.058Z,3.67
2018-08-13T03:08:07.105Z,3.70
2018-08-13T03:10:43.279Z,3.27
2018-08-13T03:13:11.900Z,3.43
2018-08-13T03:15:41.741Z,3.47
2018-08-13T03:18:10.642Z,3.10
2018-08-13T03:20:40.219Z,3.87
2018-08-13T03:23:10.552Z,3.73
2018-08-13T03:25:39.602Z,3.80
2018-08-13T03:28:09.688Z,3.23
2018-08-13T03:30:39.049Z,3.80
2018-08-13T03:33:08.399Z,3.37
2018-08-13T03:35:37.732Z,3.43
2018-08-13T03:38:07.113Z,4.00
2018-08-13T03:40:37.419Z,3.33
2018-08-13T03:43:06.319Z,3.60
2018-08-13T03:45:34.985Z,3.63
2018-08-13T03:48:03.833Z,3.30
2018-08-13T03:50:32.596Z,3.80
2018-08-13T03:53:01.216Z,3.40
2018-08-13T03:55:31.498Z,3.97
2018-08-13T03:58:01.545Z,4.23
2018-08-13T04:00:30.916Z,3.83
2018-08-13T04:03:00.371Z,3.80
2018-08-13T04:05:30.279Z,3.20
2018-08-13T04:07:59.077Z,3.67
2018-08-13T04:10:27.793Z,3.63
2018-08-13T04:12:56.837Z,3.33
2018-08-13T04:15:25.924Z,4.03
2018-08-13T04:17:54.552Z,3.70
2018-08-13T04:20:23.253Z,3.43
2018-08-13T04:22:51.897Z,3.47
2018-08-13T04:25:20.511Z,3.33
2018-08-13T04:27:49.237Z,3.40
2018-08-13T04:30:18.658Z,3.80
2018-08-13T04:32:48.070Z,4.30
2018-08-13T04:35:16.704Z,3.60
2018-08-13T04:37:46.408Z,3.73
2018-08-13T04:40:16.495Z,3.40
2018-08-13T04:42:46.439Z,4.00
2018-08-13T04:45:15.881Z,3.77
2018-08-13T04:47:52.198Z,4.17
2018-08-13T04:50:21.820Z,3.27
2018-08-13T04:52:50.760Z,3.43
2018-08-13T04:55:20.349Z,3.30
2018-08-13T04:57:50.847Z,3.37
2018-08-13T05:00:19.502Z,4.17
2018-08-13T05:02:48.112Z,4.90
2018-08-13T05:05:16.824Z,3.90
2018-08-13T05:07:45.616Z,4.13
2018-08-13T05:10:14.292Z,3.60
2018-08-13T05:12:42.897Z,3.83
2018-08-13T05:15:12.146Z,4.37
2018-08-13T05:17:40.798Z,4.00
2018-08-13T05:20:10.347Z,3.37
2018-08-13T05:22:40.337Z,3.60
2018-08-13T05:25:10.972Z,4.03
2018-08-13T05:27:40.381Z,4.13
2018-08-13T05:30:10.539Z,3.87
2018-08-13T05:32:39.212Z,4.00
2018-08-13T05:35:08.709Z,4.13
2018-08-13T05:37:37.768Z,4.27
2018-08-13T05:40:07.924Z,4.07
2018-08-13T05:42:36.725Z,4.40
2018-08-13T05:45:06.468Z,4.50
2018-08-13T05:47:35.596Z,4.17
2018-08-13T05:50:05.089Z,4.40
2018-08-13T05:52:33.821Z,4.70
2018-08-13T05:55:02.528Z,4.37
2018-08-13T05:57:31.186Z,4.20
2018-08-13T05:59:59.910Z,3.87
2018-08-13T06:02:33.278Z,4.87
2018-08-13T06:05:02.003Z,5.00
2018-08-13T06:07:30.724Z,6.03
2018-08-13T06:09:59.543Z,4.93
2018-08-13T06:12:28.158Z,5.10
2018-08-13T06:14:57.615Z,4.93
2018-08-13T06:17:26.880Z,4.67
2018-08-13T06:19:55.563Z,4.33
2018-08-13T06:22:24.789Z,4.43
2018-08-13T06:24:53.981Z,4.87
2018-08-13T06:27:23.362Z,4.60
2018-08-13T06:29:52.050Z,4.10
2018-08-13T06:32:20.684Z,4.20
2018-08-13T06:34:49.946Z,4.20
2018-08-13T06:37:18.655Z,3.63
2018-08-13T06:39:47.687Z,4.20
2018-08-13T06:42:16.358Z,4.00
2018-08-13T06:44:46.457Z,3.50
2018-08-13T06:47:16.005Z,3.50
2018-08-13T06:49:44.682Z,3.10
2018-08-13T06:52:13.406Z,3.33
2018-08-13T06:54:43.028Z,2.90
2018-08-13T06:57:11.698Z,3.10
2018-08-13T06:59:40.347Z,3.00
2018-08-13T07:02:09.345Z,3.80
2018-08-13T07:04:38.030Z,4.60
2018-08-13T07:07:06.874Z,3.60
2018-08-13T07:09:35.605Z,4.07
2018-08-13T07:12:04.447Z,4.07
2018-08-13T07:14:33.069Z,4.20
2018-08-13T07:17:01.753Z,4.03
2018-08-13T07:19:30.436Z,4.43
2018-08-13T07:21:59.154Z,4.40
2018-08-13T07:24:28.513Z,4.10
2018-08-13T07:26:57.230Z,4.27
2018-08-13T07:29:25.950Z,3.97
2018-08-13T07:31:54.604Z,4.97
2018-08-13T07:34:23.277Z,4.20
2018-08-13T07:36:51.940Z,5.43
2018-08-13T07:39:20.844Z,4.13
2018-08-13T07:41:49.583Z,5.10
2018-08-13T07:44:18.885Z,4.50
2018-08-13T07:46:48.262Z,4.20
2018-08-13T07:49:19.393Z,4.43
2018-08-13T07:51:50.077Z,4.30
2018-08-13T07:54:19.193Z,4.53
2018-08-13T07:56:47.888Z,4.30
2018-08-13T07:59:17.419Z,5.33
2018-08-13T08:01:47.301Z,4.30
2018-08-13T08:04:16.057Z,4.13
2018-08-13T08:06:45.423Z,3.93
2018-08-13T08:09:14.517Z,4.23
2018-08-13T08:11:43.187Z,4.77
2018-08-13T08:14:12.488Z,4.43
2018-08-13T08:16:41.351Z,4.43
2018-08-13T08:19:10.982Z,4.47
2018-08-13T08:21:41.252Z,4.40
2018-08-13T08:24:10.101Z,4.60
2018-08-13T08:26:38.866Z,4.60
2018-08-13T08:29:09.714Z,4.40
2018-08-13T08:31:39.154Z,4.20
2018-08-13T08:34:09.215Z,4.13
2018-08-13T08:36:38.389Z,5.30
2018-08-13T08:39:11.169Z,3.33
2018-08-13T08:41:39.981Z,3.33
2018-08-13T08:44:08.921Z,4.10
2018-08-13T08:46:38.442Z,3.77
2018-08-13T08:49:08.500Z,3.20
2018-08-13T08:51:39.784Z,3.90
2018-08-13T08:54:10.261Z,3.10
2018-08-13T08:56:39.190Z,2.87
2018-08-13T08:59:09.228Z,3.17
2018-08-13T09:01:39.006Z,3.13
2018-08-13T09:04:10.210Z,3.70
2018-08-13T09:06:39.016Z,3.20
2018-08-13T09:09:19.090Z,2.60
2018-08-13T09:11:48.042Z,2.83
2018-08-13T09:14:17.090Z,3.33
2018-08-13T09:16:52.793Z,3.70
2018-08-13T09:19:35.361Z,3.27
2018-08-13T09:22:16.419Z,3.60
2018-08-13T09:24:57.934Z,3.13
2018-08-13T09:27:42.204Z,3.37
2018-08-13T09:30:26.100Z,3.33
2018-08-13T09:33:07.177Z,3.57
2018-08-13T09:35:39.903Z,3.40
2018-08-13T09:38:17.513Z,3.30
2018-08-13T09:40:53.496Z,3.33
2018-08-13T09:43:22.381Z,3.23
2018-08-13T09:45:51.170Z,3.90
2018-08-13T09:48:23.602Z,3.80
2018-08-13T09:50:54.529Z,3.67
2018-08-13T09:53:25.253Z,3.47
2018-08-13T09:56:03.887Z,3.67
2018-08-13T09:58:37.292Z,4.10
2018-08-13T10:01:10.662Z,3.60
2018-08-13T10:03:42.076Z,3.83
2018-08-13T10:06:16.234Z,3.80
2018-08-13T10:08:44.939Z,3.83
2018-08-13T10:11:14.780Z,3.87
2018-08-13T10:13:44.818Z,4.70
2018-08-13T10:16:23.559Z,4.23
2018-08-13T10:18:55.728Z,3.97
2018-08-13T10:21:25.625Z,4.20
2018-08-13T10:23:55.487Z,4.20
2018-08-13T10:26:24.550Z,4.50
2018-08-13T10:28:54.998Z,4.33
2018-08-13T10:31:27.859Z,4.77
2018-08-13T10:36:44.305Z,3.83
2018-08-13T10:39:18.010Z,4.50
2018-08-13T10:41:46.752Z,4.40
2018-08-13T10:44:20.002Z,3.83
2018-08-13T10:49:47.858Z,4.27
2018-08-13T10:52:16.958Z,4.10
2018-08-13T10:54:47.191Z,4.20
2018-08-13T10:57:16.370Z,4.10
2018-08-13T10:59:46.286Z,5.00
2018-08-13T11:02:24.254Z,5.17
2018-08-13T11:04:53.821Z,4.43
2018-08-13T11:07:23.194Z,4.10
2018-08-13T11:09:52.703Z,5.50
2018-08-13T11:12:22.409Z,4.10
2018-08-13T11:14:53.654Z,4.50
2018-08-13T11:17:22.804Z,3.93
2018-08-13T11:19:51.981Z,4.43
2018-08-13T11:22:21.602Z,5.27
2018-08-13T11:24:50.773Z,4.33
2018-08-13T11:27:19.815Z,4.10
2018-08-13T11:29:50.225Z,4.53
2018-08-13T11:32:19.008Z,4.83
2018-08-13T11:34:49.340Z,5.00
2018-08-13T11:37:19.863Z,4.00
2018-08-13T11:39:48.609Z,4.20
2018-08-13T11:42:17.305Z,4.20
2018-08-13T11:44:47.631Z,4.60
2018-08-13T11:47:16.853Z,4.00
2018-08-13T11:49:45.899Z,3.70
2018-08-13T11:52:14.910Z,4.23
2018-08-13T11:54:44.420Z,3.93
2018-08-13T11:57:15.218Z,4.50
2018-08-13T11:59:43.909Z,3.60
2018-08-13T12:02:12.674Z,3.90
2018-08-13T12:04:42.161Z,3.80
2018-08-13T12:07:10.881Z,4.00
2018-08-13T12:09:40.034Z,4.10
2018-08-13T12:12:08.843Z,4.27
2018-08-13T12:14:37.912Z,4.77
2018-08-13T12:17:07.353Z,4.17
2018-08-13T12:19:36.290Z,4.07
2018-08-13T12:22:05.129Z,4.27
2018-08-13T12:24:33.945Z,4.20
2018-08-13T12:27:03.131Z,4.43
2018-08-13T12:29:32.910Z,3.97
2018-08-13T12:32:01.746Z,4.10
2018-08-13T12:34:31.063Z,3.60
2018-08-13T12:37:05.287Z,3.57
2018-08-13T12:39:34.325Z,3.30
2018-08-13T12:42:03.175Z,3.70
2018-08-13T12:44:32.212Z,3.40
2018-08-13T12:47:02.250Z,3.50
2018-08-13T12:49:32.302Z,3.90
2018-08-13T12:52:01.658Z,3.00
2018-08-13T12:54:30.535Z,3.23
2018-08-13T12:57:00.002Z,3.07
2018-08-13T12:59:29.015Z,2.97
2018-08-13T13:01:59.232Z,2.70
2018-08-13T13:04:28.461Z,3.00
2018-08-13T13:06:57.680Z,2.80
2018-08-13T13:09:27.583Z,2.80
2018-08-13T13:11:56.356Z,2.70
2018-08-13T13:14:25.419Z,2.67
2018-08-13T13:16:55.077Z,2.30
2018-08-13T13:19:25.031Z,2.30
2018-08-13T13:21:53.924Z,2.50
2018-08-13T13:24:23.296Z,2.50
2018-08-13T13:26:51.989Z,2.47
2018-08-13T13:29:20.824Z,2.80
2018-08-13T13:31:50.109Z,3.10
2018-08-13T13:34:18.826Z,2.67
2018-08-13T13:36:48.198Z,3.73
2018-08-13T13:39:18.074Z,2.43
2018-08-13T13:41:47.138Z,3.00
2018-08-13T13:44:17.041Z,2.53
2018-08-13T13:46:46.393Z,2.17
2018-08-13T13:49:15.202Z,3.47
2018-08-13T13:51:44.728Z,2.73
2018-08-13T13:54:14.229Z,2.50
2018-08-13T13:56:43.167Z,3.00
2018-08-13T13:59:11.840Z,2.80
2018-08-13T14:01:40.484Z,2.53
2018-08-13T14:04:09.279Z,3.30
2018-08-13T14:06:38.576Z,3.10
2018-08-13T14:09:10.098Z,2.83
2018-08-13T14:11:38.966Z,3.07
2018-08-13T14:14:08.443Z,3.10
2018-08-13T14:16:37.187Z,2.90
2018-08-13T14:19:06.727Z,2.90
2018-08-13T14:21:36.299Z,3.10
2018-08-13T14:24:05.540Z,3.60
2018-08-13T14:26:34.278Z,3.27
2018-08-13T14:29:04.448Z,3.90
2018-08-13T14:31:34.843Z,3.50
2018-08-13T14:34:04.236Z,3.07
2018-08-13T14:36:32.964Z,2.90
2018-08-13T14:39:02.222Z,3.20
2018-08-13T14:41:31.577Z,3.43
2018-08-13T14:44:00.673Z,3.07
2018-08-13T14:46:29.803Z,2.97
2018-08-13T14:48:59.360Z,2.87
2018-08-13T14:51:28.314Z,3.17
2018-08-13T14:53:57.530Z,3.50
2018-08-13T14:56:26.823Z,3.17
2018-08-13T14:58:55.577Z,2.63
2018-08-13T15:01:24.290Z,3.20
2018-08-13T15:03:53.112Z,3.10
2018-08-13T15:06:22.375Z,3.00
2018-08-13T15:08:51.083Z,2.30
2018-08-13T15:11:19.937Z,2.33
2018-08-13T15:13:49.428Z,1.60
2018-08-13T15:16:18.763Z,1.70
2018-08-13T15:18:47.887Z,2.00
2018-08-13T15:21:16.688Z,1.80
2018-08-13T15:23:45.540Z,1.90
2018-08-13T15:26:15.584Z,2.47
2018-08-13T15:28:44.458Z,2.37
2018-08-13T15:31:13.142Z,2.23
2018-08-13T15:33:42.952Z,2.50
2018-08-13T15:36:13.375Z,2.60
2018-08-13T15:38:42.947Z,2.60
2018-08-13T15:41:11.632Z,2.40
2018-08-13T15:43:40.767Z,2.40
2018-08-13T15:46:22.245Z,3.20
2018-08-13T15:48:55.580Z,3.53
2018-08-13T15:51:26.557Z,2.97
2018-08-13T15:53:56.679Z,2.13
2018-08-13T15:56:27.931Z,2.50
2018-08-13T15:58:57.526Z,2.23
2018-08-13T16:01:26.400Z,1.87
2018-08-13T16:03:56.439Z,2.10
2018-08-13T16:06:28.256Z,2.17
2018-08-13T16:08:58.527Z,2.20
2018-08-13T16:11:27.377Z,2.20
2018-08-13T16:13:58.969Z,2.40
2018-08-13T16:16:29.769Z,1.90
2018-08-13T16:19:02.079Z,2.10
2018-08-13T16:21:30.923Z,2.30
2018-08-13T16:24:02.266Z,2.33
2018-08-13T16:26:32.985Z,2.63
2018-08-13T16:29:03.711Z,2.57
2018-08-13T16:31:32.600Z,2.87
2018-08-13T16:34:02.124Z,3.10
2018-08-13T16:36:31.751Z,2.63
2018-08-13T16:39:00.490Z,2.70
2018-08-13T16:41:34.418Z,2.47
2018-08-13T16:44:05.507Z,3.20
2018-08-13T16:46:36.317Z,2.53
2018-08-13T16:49:15.275Z,2.10
2018-08-13T16:51:45.296Z,2.47
2018-08-13T16:54:15.401Z,2.23
2018-08-13T16:56:44.734Z,2.53
2018-08-13T16:59:15.851Z,2.30
2018-08-13T17:01:47.540Z,2.07
2018-08-13T17:04:21.796Z,2.30
2018-08-13T17:06:55.455Z,2.00
2018-08-13T17:09:30.248Z,2.00
2018-08-13T17:12:02.576Z,2.10
2018-08-13T17:14:34.173Z,2.07
2018-08-13T17:17:10.775Z,1.80
2018-08-13T17:23:13.253Z,1.73
2018-08-13T17:25:44.666Z,1.70
2018-08-13T17:28:16.157Z,1.70
2018-08-13T17:33:21.623Z,1.60
2018-08-13T17:35:50.370Z,1.93
2018-08-13T17:38:19.112Z,1.83
2018-08-13T17:40:47.900Z,2.10
2018-08-13T17:43:16.868Z,2.03
2018-08-13T17:45:46.270Z,2.30
2018-08-13T17:48:14.975Z,2.07
2018-08-13T17:50:43.716Z,1.80
2018-08-13T17:53:12.352Z,2.20
2018-08-13T17:55:41.237Z,2.40
2018-08-13T17:58:10.363Z,2.40
2018-08-13T18:00:40.996Z,2.40
2018-08-13T18:03:10.306Z,2.57
2018-08-13T18:05:39.262Z,2.80
2018-08-13T18:08:08.318Z,2.40
2018-08-13T18:10:37.871Z,3.00
2018-08-13T18:13:08.661Z,2.90
2018-08-13T18:15:37.477Z,3.10
2018-08-13T18:18:06.423Z,2.50
2018-08-13T18:20:35.377Z,2.80
2018-08-13T18:23:04.775Z,2.93
2018-08-13T18:25:33.554Z,3.00
2018-08-13T18:28:02.327Z,2.73
2018-08-13T18:30:31.141Z,2.40
2018-08-13T18:32:59.869Z,2.80
2018-08-13T18:35:29.030Z,2.80
2018-08-13T18:37:58.101Z,3.20
2018-08-13T18:40:31.089Z,3.27
2018-08-13T18:42:59.879Z,3.00
2018-08-13T18:45:28.859Z,3.00
2018-08-13T18:47:57.999Z,3.53
2018-08-13T18:50:28.955Z,2.77
2018-08-13T18:52:57.697Z,3.10
2018-08-13T18:55:26.818Z,3.13
2018-08-13T18:57:56.064Z,2.47
2018-08-13T19:00:30.368Z,2.73
2018-08-13T19:03:01.526Z,3.03
2018-08-13T19:05:33.127Z,2.73
2018-08-13T19:08:03.840Z,3.27
2018-08-13T19:10:40.007Z,3.37
2018-08-13T19:13:11.436Z,3.30
2018-08-13T19:15:42.997Z,2.93
2018-08-13T19:18:14.257Z,2.93
2018-08-13T19:20:43.208Z,3.03
2018-08-13T19:23:13.390Z,2.77
2018-08-13T19:25:44.008Z,3.10
2018-08-13T19:28:17.501Z,2.73
2018-08-13T19:30:49.478Z,3.13
2018-08-13T19:33:18.901Z,2.97
2018-08-13T19:35:55.084Z,2.73
2018-08-13T19:38:35.622Z,2.90
2018-08-13T19:41:05.940Z,2.40
2018-08-13T19:43:35.880Z,2.50
2018-08-13T19:46:07.732Z,2.80
2018-08-13T19:48:38.171Z,3.00
2018-08-13T19:51:07.270Z,3.10
2018-08-13T19:53:35.966Z,3.30
2018-08-13T19:56:04.850Z,2.53
2018-08-13T19:58:34.086Z,2.83
2018-08-13T20:01:03.491Z,2.67
2018-08-13T20:03:32.489Z,2.50
2018-08-13T20:06:01.325Z,2.67
2018-08-13T20:08:30.683Z,2.60
2018-08-13T20:11:00.333Z,2.47
2018-08-13T20:13:29.071Z,3.10
2018-08-13T20:15:57.740Z,2.80
2018-08-13T20:18:26.517Z,2.70
2018-08-13T20:20:55.201Z,2.80
2018-08-13T20:23:23.874Z,2.87
2018-08-13T20:25:52.602Z,2.57
2018-08-13T20:28:21.369Z,2.40
2018-08-13T20:30:50.115Z,3.00
2018-08-13T20:33:18.948Z,3.10
2018-08-13T20:35:47.738Z,3.20
2018-08-13T20:38:16.523Z,3.00
2018-08-13T20:40:47.160Z,3.23
2018-08-13T20:43:16.777Z,2.97
2018-08-13T20:45:46.298Z,2.60
2018-08-13T20:48:15.032Z,3.20
2018-08-13T20:50:43.721Z,3.30
2018-08-13T20:53:12.527Z,3.30
2018-08-13T20:55:41.345Z,3.20
2018-08-13T20:58:10.030Z,3.20
2018-08-13T21:00:38.983Z,3.17
2018-08-13T21:03:07.664Z,3.40
2018-08-13T21:05:36.353Z,3.37
2018-08-13T21:08:05.972Z,3.17
2018-08-13T21:10:38.853Z,3.20
2018-08-13T21:13:07.906Z,3.00
2018-08-13T21:15:37.258Z,3.10
2018-08-13T21:18:07.397Z,3.27
2018-08-13T21:20:37.833Z,3.20
2018-08-13T21:23:07.030Z,2.80
2018-08-13T21:25:37.117Z,2.70
2018-08-13T21:28:06.394Z,2.87
2018-08-13T21:30:36.202Z,2.87
2018-08-13T21:33:05.108Z,2.70
2018-08-13T21:35:33.830Z,2.80
2018-08-13T21:38:03.278Z,2.33
2018-08-13T21:40:32.065Z,2.70
2018-08-13T21:43:01.731Z,2.70
2018-08-13T21:45:30.935Z,2.80
2018-08-13T21:48:00.769Z,2.43
2018-08-13T21:50:30.099Z,2.83
2018-08-13T21:52:59.840Z,2.80
2018-08-13T21:55:29.424Z,2.70
2018-08-13T21:57:59.015Z,2.77
2018-08-13T22:01:32.892Z,2.30
2018-08-13T22:04:02.441Z,2.60
2018-08-13T22:06:31.760Z,2.60
2018-08-13T22:09:02.380Z,2.60
2018-08-13T22:11:32.038Z,2.57
2018-08-13T22:14:00.980Z,2.60
2018-08-13T22:16:31.201Z,2.70
2018-08-13T22:19:00.874Z,2.70
2018-08-13T22:21:30.395Z,2.80
2018-08-13T22:24:10.430Z,2.53
2018-08-13T22:26:39.609Z,2.57
2018-08-13T22:29:09.000Z,3.10
2018-08-13T22:31:39.005Z,2.73
2018-08-13T22:34:09.853Z,2.80
2018-08-13T22:36:38.465Z,2.63
2018-08-13T22:39:09.276Z,2.50
2018-08-13T22:41:38.193Z,2.67
2018-08-13T22:44:07.095Z,2.50
2018-08-13T22:46:37.188Z,2.60
2018-08-13T22:49:06.015Z,2.80
2018-08-13T22:51:34.768Z,2.53
2018-08-13T22:54:03.984Z,2.90
2018-08-13T22:56:32.665Z,3.13
2018-08-13T22:59:05.576Z,2.60
2018-08-13T23:01:34.724Z,2.70
2018-08-13T23:04:03.882Z,2.67
2018-08-13T23:06:33.263Z,2.43
2018-08-13T23:09:02.212Z,2.33
2018-08-13T23:11:30.809Z,3.03
2018-08-13T23:14:00.167Z,2.70
2018-08-13T23:16:30.241Z,2.90
2018-08-13T23:18:59.787Z,2.50
2018-08-13T23:21:29.123Z,2.60
2018-08-13T23:23:57.821Z,2.77
2018-08-13T23:26:26.583Z,2.50
2018-08-13T23:28:55.282Z,3.00
2018-08-13T23:31:24.660Z,2.97
2018-08-13T23:33:54.713Z,2.53
2018-08-13T23:36:24.876Z,2.73
2018-08-13T23:38:53.653Z,2.63
2018-08-13T23:41:22.914Z,2.57
2018-08-13T23:43:52.328Z,2.90
2018-08-13T23:46:21.115Z,2.80
2018-08-13T23:48:51.538Z,2.90
2018-08-13T23:51:20.258Z,3.23
2018-08-13T23:53:49.724Z,2.70
2018-08-13T23:56:23.774Z,2.63
2018-08-13T23:58:52.678Z,2.80
